createdAt,value
2023-04-18T00:01:51.750Z,74.22
2023-04-18T00:03:53.618Z,74.32
2023-04-18T00:05:55.845Z,74.22
2023-04-18T00:07:57.299Z,74.00
2023-04-18T00:09:58.754Z,74.27
2023-04-18T00:12:01.584Z,74.36
2023-04-18T00:14:03.392Z,74.68
2023-04-18T00:16:05.991Z,74.58
2023-04-18T00:18:08.457Z,74.63
2023-04-18T00:20:12.992Z,74.71
2023-04-18T00:22:16.452Z,74.44
2023-04-18T00:24:17.949Z,74.38
2023-04-18T00:26:19.644Z,74.43
2023-04-18T00:28:21.145Z,74.63
2023-04-18T00:30:22.623Z,74.65
2023-04-18T00:32:24.284Z,74.87
2023-04-18T00:34:25.778Z,74.71
2023-04-18T00:36:27.818Z,74.98
2023-04-18T00:38:29.298Z,75.13
2023-04-18T00:40:30.804Z,74.53
2023-04-18T00:42:32.787Z,74.75
2023-04-18T00:44:34.270Z,75.28
2023-04-18T00:46:35.783Z,75.16
2023-04-18T00:48:39.163Z,75.48
2023-04-18T00:50:41.676Z,75.52
2023-04-18T00:52:44.652Z,75.71
2023-04-18T00:54:47.330Z,75.39
2023-04-18T00:56:48.883Z,75.30
2023-04-18T00:58:50.456Z,75.65
2023-04-18T01:00:52.190Z,75.62
2023-04-18T01:02:55.753Z,75.35
2023-04-18T01:04:58.633Z,75.52
2023-04-18T01:07:01.482Z,75.38
2023-04-18T01:09:05.222Z,75.29
2023-04-18T01:11:06.741Z,75.06
2023-04-18T01:13:15.931Z,75.02
2023-04-18T01:15:17.423Z,75.12
2023-04-18T01:17:19.251Z,75.09
2023-04-18T01:19:20.757Z,75.02
2023-04-18T01:21:22.562Z,74.53
2023-04-18T01:23:24.071Z,75.10
2023-04-18T01:25:25.924Z,74.95
2023-04-18T01:27:27.408Z,74.73
2023-04-18T01:29:29.126Z,74.79
2023-04-18T01:31:30.820Z,74.88
2023-04-18T01:33:32.292Z,74.48
2023-04-18T01:35:34.248Z,74.82
2023-04-18T01:37:35.890Z,74.69
2023-04-18T01:39:37.375Z,74.74
2023-04-18T01:41:39.205Z,74.18
2023-04-18T01:43:40.659Z,74.76
2023-04-18T01:45:42.158Z,74.66
2023-04-18T01:47:44.113Z,74.48
2023-04-18T01:49:48.165Z,74.52
2023-04-18T01:51:49.660Z,74.21
2023-04-18T01:53:51.145Z,74.25
2023-04-18T01:55:52.715Z,74.26
2023-04-18T01:57:54.181Z,74.65
2023-04-18T01:59:55.734Z,74.52
2023-04-18T02:01:57.438Z,74.85
2023-04-18T02:03:59.051Z,74.42
2023-04-18T02:06:01.910Z,74.72
2023-04-18T02:08:03.509Z,75.28
2023-04-18T02:10:05.607Z,74.93
2023-04-18T02:12:07.398Z,75.11
2023-04-18T02:14:09.001Z,75.06
2023-04-18T02:16:13.985Z,75.38
2023-04-18T02:18:17.355Z,75.31
2023-04-18T02:20:18.868Z,75.23
2023-04-18T02:22:20.418Z,75.25
2023-04-18T02:24:21.972Z,75.41
2023-04-18T02:26:23.773Z,75.30
2023-04-18T02:28:25.228Z,75.29
2023-04-18T02:30:27.133Z,75.23
2023-04-18T02:32:28.637Z,75.41
2023-04-18T02:34:30.378Z,75.56
2023-04-18T02:36:31.967Z,75.47
2023-04-18T02:38:33.438Z,75.72
2023-04-18T02:40:34.913Z,75.17
2023-04-18T02:42:36.485Z,75.22
2023-04-18T02:44:37.932Z,75.46
2023-04-18T02:46:39.418Z,75.45
2023-04-18T02:48:41.055Z,75.79
2023-04-18T02:50:42.505Z,75.68
2023-04-18T02:52:44.120Z,75.69
2023-04-18T02:54:45.703Z,75.48
2023-04-18T02:56:47.245Z,75.77
2023-04-18T02:58:49.136Z,75.64
2023-04-18T03:00:53.675Z,76.05
2023-04-18T03:02:55.490Z,76.04
2023-04-18T03:04:57.074Z,76.41
2023-04-18T03:06:59.389Z,76.06
2023-04-18T03:09:00.867Z,76.18
2023-04-18T03:11:02.336Z,76.28
2023-04-18T03:13:04.134Z,76.34
2023-04-18T03:15:06.353Z,76.34
2023-04-18T03:17:07.860Z,76.57
2023-04-18T03:19:09.633Z,76.50
2023-04-18T03:21:11.766Z,76.53
2023-04-18T03:23:13.238Z,76.63
2023-04-18T03:25:14.814Z,76.91
2023-04-18T03:27:16.368Z,76.49
2023-04-18T03:29:17.876Z,76.67
2023-04-18T03:31:19.447Z,76.48
2023-04-18T03:33:20.921Z,76.35
2023-04-18T03:35:22.422Z,76.30
2023-04-18T03:37:23.865Z,76.89
2023-04-18T03:39:25.435Z,76.57
2023-04-18T03:41:27.045Z,76.54
2023-04-18T03:43:28.546Z,76.18
2023-04-18T03:45:30.350Z,76.64
2023-04-18T03:47:32.116Z,76.40
2023-04-18T03:49:33.626Z,76.67
2023-04-18T03:51:43.822Z,77.07
2023-04-18T03:53:45.342Z,76.78
2023-04-18T03:55:46.887Z,76.78
2023-04-18T03:57:48.371Z,76.61
2023-04-18T03:59:49.950Z,76.49
2023-04-18T04:01:51.503Z,76.64
2023-04-18T04:03:53.468Z,76.74
2023-04-18T04:05:55.304Z,77.04
2023-04-18T04:07:56.858Z,77.07
2023-04-18T04:09:58.698Z,76.76
2023-04-18T04:12:00.158Z,76.71
2023-04-18T04:14:02.187Z,76.91
2023-04-18T04:16:04.706Z,76.96
2023-04-18T04:18:06.553Z,76.92
2023-04-18T04:20:08.517Z,76.66
2023-04-18T04:22:10.082Z,77.28
2023-04-18T04:24:11.850Z,77.26
2023-04-18T04:26:15.110Z,77.24
2023-04-18T04:28:16.867Z,77.15
2023-04-18T04:30:18.329Z,77.08
2023-04-18T04:32:22.610Z,77.01
2023-04-18T04:34:24.133Z,77.18
2023-04-18T04:36:27.189Z,76.85
2023-04-18T04:38:30.854Z,76.76
2023-04-18T04:40:32.531Z,76.79
2023-04-18T04:42:34.640Z,77.37
2023-04-18T04:44:37.450Z,76.95
2023-04-18T04:46:40.305Z,76.78
2023-04-18T04:48:42.418Z,77.03
2023-04-18T04:50:51.950Z,77.21
2023-04-18T04:52:53.429Z,76.71
2023-04-18T04:54:54.900Z,76.57
2023-04-18T04:56:56.541Z,76.89
2023-04-18T04:58:58.226Z,76.74
2023-04-18T05:00:59.771Z,76.42
2023-04-18T05:03:02.218Z,76.64
2023-04-18T05:05:04.090Z,76.38
2023-04-18T05:07:05.805Z,76.58
2023-04-18T05:09:07.305Z,76.29
2023-04-18T05:11:08.790Z,76.33
2023-04-18T05:13:10.338Z,76.16
2023-04-18T05:15:12.643Z,75.98
2023-04-18T05:17:14.139Z,76.10
2023-04-18T05:19:15.744Z,75.83
2023-04-18T05:21:17.248Z,75.85
2023-04-18T05:23:18.717Z,75.61
2023-04-18T05:25:20.420Z,75.75
2023-04-18T05:27:21.993Z,75.72
2023-04-18T05:29:23.471Z,75.75
2023-04-18T05:31:25.841Z,75.61
2023-04-18T05:33:31.665Z,75.50
2023-04-18T05:35:33.165Z,75.44
2023-04-18T05:37:34.683Z,75.57
2023-04-18T05:39:36.246Z,75.25
2023-04-18T05:41:37.700Z,75.46
2023-04-18T05:43:39.178Z,74.99
2023-04-18T05:45:40.782Z,74.99
2023-04-18T05:47:42.270Z,74.78
2023-04-18T05:49:43.918Z,74.62
2023-04-18T05:51:46.225Z,75.04
2023-04-18T05:53:47.788Z,75.01
2023-04-18T05:55:50.134Z,74.94
2023-04-18T05:57:51.679Z,75.05
2023-04-18T05:59:53.170Z,74.73
2023-04-18T06:01:54.910Z,74.47
2023-04-18T06:03:56.724Z,74.00
2023-04-18T06:05:58.575Z,74.22
2023-04-18T06:08:00.147Z,74.21
2023-04-18T06:10:01.745Z,74.57
2023-04-18T06:12:03.622Z,74.44
2023-04-18T06:14:05.075Z,74.38
2023-04-18T06:16:06.818Z,73.85
2023-04-18T06:18:08.372Z,73.77
2023-04-18T06:20:10.682Z,73.73
2023-04-18T06:22:12.171Z,73.55
2023-04-18T06:24:13.874Z,73.70
2023-04-18T06:26:15.937Z,73.11
2023-04-18T06:28:17.452Z,73.03
2023-04-18T06:30:21.896Z,73.03
2023-04-18T06:32:23.507Z,72.51
2023-04-18T06:34:25.431Z,73.43
2023-04-18T06:36:27.509Z,72.97
2023-04-18T06:38:29.085Z,72.63
2023-04-18T06:40:30.646Z,72.56
2023-04-18T06:42:32.163Z,72.84
2023-04-18T06:44:33.712Z,72.48
2023-04-18T06:46:35.322Z,73.02
2023-04-18T06:48:36.859Z,72.89
2023-04-18T06:50:38.361Z,72.57
2023-04-18T06:52:44.291Z,72.87
2023-04-18T06:54:45.844Z,73.05
2023-04-18T06:56:47.580Z,73.34
2023-04-18T06:58:49.646Z,73.76
2023-04-18T07:00:52.048Z,73.07
2023-04-18T07:02:53.918Z,72.69
2023-04-18T07:04:55.494Z,73.57
2023-04-18T07:06:56.989Z,72.90
2023-04-18T07:09:01.309Z,71.59
2023-04-18T07:11:03.003Z,72.15
2023-04-18T07:13:04.819Z,71.96
2023-04-18T07:15:06.835Z,72.32
2023-04-18T07:17:08.374Z,73.06
2023-04-18T07:19:09.942Z,72.95
2023-04-18T07:21:11.512Z,71.37
2023-04-18T07:29:02.713Z,74.88
2023-04-18T07:31:04.589Z,74.08
2023-04-18T07:33:06.456Z,72.25
2023-04-18T07:35:08.418Z,71.22
2023-04-18T07:37:09.880Z,71.20
2023-04-18T07:39:11.396Z,71.40
2023-04-18T07:41:13.187Z,71.51
2023-04-18T07:43:15.021Z,70.60
2023-04-18T07:45:16.575Z,70.25
2023-04-18T07:47:22.293Z,69.97
2023-04-18T07:49:24.079Z,69.75
2023-04-18T07:51:31.181Z,69.70
2023-04-18T07:53:33.853Z,69.75
2023-04-18T07:55:35.418Z,69.02
2023-04-18T07:57:36.907Z,68.72
2023-04-18T07:59:38.382Z,69.32
2023-04-18T08:01:39.870Z,69.09
2023-04-18T08:03:41.791Z,68.48
2023-04-18T08:05:43.513Z,69.24
2023-04-18T08:07:45.097Z,68.41
2023-04-18T08:09:46.707Z,68.20
2023-04-18T08:11:48.256Z,68.24
2023-04-18T08:13:49.764Z,68.79
2023-04-18T08:15:51.281Z,69.02
2023-04-18T08:17:53.892Z,68.61
2023-04-18T08:19:55.398Z,68.72
2023-04-18T08:22:08.192Z,68.50
2023-04-18T08:24:09.726Z,69.06
2023-04-18T08:26:11.248Z,68.40
2023-04-18T08:28:13.803Z,68.51
2023-04-18T08:30:15.622Z,68.38
2023-04-18T08:32:17.110Z,68.17
2023-04-18T08:34:18.700Z,68.61
2023-04-18T08:36:21.207Z,68.03
2023-04-18T08:38:22.734Z,68.15
2023-04-18T08:40:24.565Z,67.96
2023-04-18T08:42:26.820Z,67.44
2023-04-18T08:44:29.083Z,68.22
2023-04-18T08:46:35.808Z,68.06
2023-04-18T08:48:37.358Z,68.06
2023-04-18T08:50:38.947Z,67.03
2023-04-18T08:52:47.410Z,67.24
2023-04-18T08:54:50.146Z,66.29
2023-04-18T08:57:09.962Z,64.86
2023-04-18T08:59:11.612Z,65.82
2023-04-18T09:01:15.087Z,67.96
2023-04-18T09:03:16.809Z,66.76
2023-04-18T09:05:19.784Z,67.25
2023-04-18T09:07:31.117Z,66.40
2023-04-18T09:09:46.911Z,65.25
2023-04-18T09:11:48.414Z,65.13
2023-04-18T09:13:50.467Z,65.46
2023-04-18T09:15:56.128Z,64.39
2023-04-18T09:18:00.236Z,64.51
2023-04-18T09:20:05.279Z,64.40
2023-04-18T09:22:08.270Z,66.28
2023-04-18T09:24:22.541Z,65.46
2023-04-18T09:26:34.810Z,65.35
2023-04-18T09:28:37.410Z,64.54
2023-04-18T09:30:41.103Z,64.01
2023-04-18T09:32:45.036Z,63.38
2023-04-18T09:34:47.221Z,64.62
2023-04-18T09:37:05.898Z,64.48
2023-04-18T09:39:07.335Z,64.42
2023-04-18T10:09:34.534Z,62.21
2023-04-18T10:11:36.627Z,64.72
2023-04-18T10:13:41.652Z,64.59
2023-04-18T10:15:44.291Z,65.60
2023-04-18T10:18:04.297Z,67.23
2023-04-18T10:20:08.399Z,68.05
2023-04-18T10:22:11.607Z,69.65
2023-04-18T10:24:45.093Z,69.66
2023-04-18T10:26:47.301Z,69.98
2023-04-18T10:28:51.146Z,66.74
2023-04-18T10:30:56.184Z,70.08
2023-04-18T10:32:57.760Z,70.81
2023-04-18T10:35:00.181Z,73.46
2023-04-18T10:37:05.419Z,70.77
2023-04-18T10:39:25.531Z,70.00
2023-04-18T10:41:29.548Z,74.09
2023-04-18T10:43:31.023Z,60.95
2023-04-18T10:45:36.448Z,58.26
2023-04-18T10:47:38.123Z,55.69
2023-04-18T10:49:39.671Z,57.56
2023-04-18T10:51:41.492Z,55.35
2023-04-18T10:53:56.352Z,55.86
2023-04-18T10:55:57.925Z,53.20
2023-04-18T10:57:59.584Z,52.13
2023-04-18T11:00:01.583Z,51.42
2023-04-18T11:02:23.234Z,49.83
2023-04-18T11:04:25.708Z,50.89
2023-04-18T11:06:27.765Z,49.32
2023-04-18T11:08:30.145Z,48.04
2023-04-18T11:10:31.762Z,47.58
2023-04-18T11:12:36.423Z,48.32
2023-04-18T11:14:46.130Z,49.28
2023-04-18T11:16:47.641Z,50.12
2023-04-18T11:18:49.123Z,49.53
2023-04-18T11:20:51.640Z,47.20
2023-04-18T11:22:54.541Z,47.55
2023-04-18T11:25:07.134Z,49.77
2023-04-18T11:27:10.423Z,51.19
2023-04-18T11:29:11.874Z,48.62
2023-04-18T11:31:16.140Z,50.57
2023-04-18T11:33:17.705Z,51.17
2023-04-18T11:35:19.227Z,49.29
2023-04-18T11:37:21.044Z,49.16
2023-04-18T11:39:22.790Z,48.44
2023-04-18T11:41:24.360Z,47.87
2023-04-18T11:43:25.983Z,48.99
2023-04-18T11:45:27.588Z,49.83
2023-04-18T11:47:31.733Z,52.20
2023-04-18T11:49:33.338Z,52.72
2023-04-18T11:51:35.958Z,53.94
2023-04-18T11:53:38.891Z,54.36
2023-04-18T11:55:40.498Z,55.25
2023-04-18T11:57:42.199Z,55.98
2023-04-18T12:00:00.828Z,56.48
2023-04-18T12:02:15.487Z,56.99
2023-04-18T12:04:19.100Z,57.30
2023-04-18T12:06:21.013Z,57.86
2023-04-18T12:08:22.538Z,57.89
2023-04-18T12:10:26.171Z,57.01
2023-04-18T12:12:27.960Z,56.26
2023-04-18T12:14:30.400Z,54.77
2023-04-18T12:16:33.438Z,54.75
2023-04-18T12:18:35.069Z,53.77
2023-04-18T12:20:38.067Z,56.11
2023-04-18T12:22:50.160Z,56.27
2023-04-18T12:25:20.098Z,57.39
2023-04-18T12:27:21.658Z,58.58
2023-04-18T12:29:23.836Z,58.36
2023-04-18T12:31:25.700Z,58.43
2023-04-18T12:33:27.550Z,58.26
2023-04-18T12:35:30.769Z,58.57
2023-04-18T12:37:32.309Z,58.85
2023-04-18T12:39:33.765Z,58.39
2023-04-18T12:41:35.286Z,59.57
2023-04-18T12:43:36.780Z,58.42
2023-04-18T12:45:38.344Z,56.84
2023-04-18T12:47:41.467Z,56.44
2023-04-18T12:49:42.944Z,56.07
2023-04-18T12:51:44.639Z,56.60
2023-04-18T12:53:46.120Z,55.45
2023-04-18T12:55:47.616Z,56.33
2023-04-18T12:57:51.705Z,56.62
2023-04-18T12:59:53.222Z,56.88
2023-04-18T13:01:55.042Z,56.13
2023-04-18T13:04:08.374Z,56.07
2023-04-18T13:06:13.738Z,56.67
2023-04-18T13:08:17.804Z,57.16
2023-04-18T13:10:21.904Z,58.23
2023-04-18T13:12:23.345Z,58.33
2023-04-18T13:14:24.874Z,58.43
2023-04-18T13:16:26.386Z,58.33
2023-04-18T13:18:27.858Z,58.59
2023-04-18T13:20:29.311Z,58.65
2023-04-18T13:22:31.541Z,58.21
2023-04-18T13:24:33.089Z,58.69
2023-04-18T13:26:36.061Z,58.52
2023-04-18T13:28:37.660Z,59.42
2023-04-18T13:30:39.328Z,60.14
2023-04-18T13:32:41.222Z,57.82
2023-04-18T13:34:46.580Z,57.55
2023-04-18T13:36:48.052Z,57.66
2023-04-18T13:38:51.181Z,57.15
2023-04-18T13:41:04.352Z,55.37
2023-04-18T13:43:13.141Z,48.84
2023-04-18T13:45:14.624Z,48.77
2023-04-18T13:47:16.289Z,49.33
2023-04-18T13:49:17.823Z,47.91
2023-04-18T13:51:19.312Z,47.11
2023-04-18T13:53:21.220Z,45.61
2023-04-18T13:55:22.809Z,46.15
2023-04-18T13:57:24.288Z,46.46
2023-04-18T14:36:28.870Z,48.06
2023-04-18T14:38:30.882Z,48.02
2023-04-18T14:40:33.158Z,48.37
2023-04-18T14:42:34.733Z,48.04
2023-04-18T14:44:36.220Z,48.28
2023-04-18T14:46:37.738Z,48.27
2023-04-18T14:48:39.213Z,48.68
2023-04-18T14:50:40.809Z,48.26
2023-04-18T14:52:42.579Z,48.31
2023-04-18T14:54:44.039Z,48.58
2023-04-18T14:56:45.674Z,48.19
2023-04-18T14:58:47.233Z,47.96
2023-04-18T15:00:49.227Z,47.64
2023-04-18T15:02:50.851Z,47.56
2023-04-18T15:04:53.398Z,48.29
2023-04-18T15:06:54.944Z,48.64
2023-04-18T15:08:56.680Z,49.40
2023-04-18T15:10:58.170Z,49.40
2023-04-18T15:12:59.656Z,50.22
2023-04-18T15:15:01.163Z,50.40
2023-04-18T15:17:05.540Z,50.31
2023-04-18T15:19:07.037Z,50.76
2023-04-18T15:21:08.628Z,50.44
2023-04-18T15:23:13.631Z,50.76
2023-04-18T15:25:18.199Z,51.25
2023-04-18T15:27:19.748Z,51.02
2023-04-18T15:29:21.222Z,51.04
2023-04-18T15:31:23.350Z,51.28
2023-04-18T15:33:25.231Z,52.07
2023-04-18T15:35:26.741Z,51.95
2023-04-18T15:37:28.310Z,51.84
2023-04-18T15:39:29.875Z,51.64
2023-04-18T15:41:34.300Z,52.10
2023-04-18T15:43:35.876Z,51.89
2023-04-18T15:45:37.407Z,51.73
2023-04-18T15:47:39.011Z,52.05
2023-04-18T15:49:40.518Z,52.64
2023-04-18T15:51:41.994Z,52.81
2023-04-18T15:53:43.592Z,52.99
2023-04-18T15:55:46.902Z,52.52
2023-04-18T15:57:48.356Z,52.94
2023-04-18T15:59:49.830Z,53.13
2023-04-18T16:01:51.541Z,53.61
2023-04-18T16:03:53.137Z,54.28
2023-04-18T16:05:54.658Z,55.05
2023-04-18T16:07:56.341Z,55.59
2023-04-18T16:09:57.868Z,56.35
2023-04-18T16:11:59.341Z,56.60
2023-04-18T16:14:00.903Z,56.81
2023-04-18T16:16:06.324Z,56.12
2023-04-18T16:18:08.553Z,56.96
2023-04-18T16:20:10.795Z,57.11
2023-04-18T16:22:12.440Z,57.32
2023-04-18T16:24:15.878Z,57.69
2023-04-18T16:26:17.540Z,58.11
2023-04-18T16:28:18.988Z,58.89
2023-04-18T16:30:20.938Z,58.23
2023-04-18T16:32:22.431Z,58.36
2023-04-18T16:34:24.030Z,58.18
2023-04-18T16:36:26.028Z,58.06
2023-04-18T16:38:27.560Z,58.74
2023-04-18T16:40:30.694Z,58.75
2023-04-18T16:42:32.460Z,58.67
2023-04-18T16:44:33.966Z,58.89
2023-04-18T16:46:35.638Z,59.19
2023-04-18T16:48:38.660Z,59.52
2023-04-18T16:50:40.205Z,60.04
2023-04-18T16:52:41.859Z,59.92
2023-04-18T16:54:44.443Z,60.48
2023-04-18T16:56:45.941Z,60.98
2023-04-18T16:58:47.442Z,61.00
2023-04-18T17:00:49.181Z,61.43
2023-04-18T17:02:50.859Z,61.75
2023-04-18T17:04:52.495Z,62.21
2023-04-18T17:06:54.104Z,62.14
2023-04-18T17:08:55.750Z,62.23
2023-04-18T17:10:57.378Z,62.44
2023-04-18T17:12:59.173Z,62.35
2023-04-18T17:15:00.603Z,62.75
2023-04-18T17:17:02.080Z,63.33
2023-04-18T17:19:03.585Z,63.11
2023-04-18T17:21:05.138Z,63.36
2023-04-18T17:23:06.657Z,63.04
2023-04-18T17:25:08.536Z,63.36
2023-04-18T17:27:09.990Z,63.63
2023-04-18T17:29:11.481Z,62.92
2023-04-18T17:31:16.233Z,63.50
2023-04-18T17:33:17.767Z,63.67
2023-04-18T17:35:19.556Z,63.66
2023-04-18T17:37:22.366Z,64.05
2023-04-18T17:39:23.912Z,65.18
2023-04-18T17:41:25.688Z,65.18
2023-04-18T17:43:27.673Z,65.71
2023-04-18T17:45:29.231Z,65.30
2023-04-18T17:47:32.594Z,66.01
2023-04-18T17:49:36.684Z,66.16
2023-04-18T17:51:38.160Z,66.32
2023-04-18T17:53:39.605Z,66.51
2023-04-18T17:55:41.129Z,66.45
2023-04-18T17:57:42.648Z,66.83
2023-04-18T17:59:44.150Z,66.86
2023-04-18T18:01:46.100Z,66.86
2023-04-18T18:03:48.759Z,67.04
2023-04-18T18:05:50.722Z,66.87
2023-04-18T18:07:53.351Z,67.20
2023-04-18T18:09:55.269Z,67.23
2023-04-18T18:11:57.017Z,67.18
2023-04-18T18:13:59.221Z,67.10
2023-04-18T18:16:02.011Z,66.87
2023-04-18T18:18:03.567Z,66.95
2023-04-18T18:20:13.324Z,66.97
2023-04-18T18:22:15.711Z,66.99
2023-04-18T18:24:18.641Z,67.21
2023-04-18T18:26:20.222Z,67.56
2023-04-18T18:28:21.713Z,67.73
2023-04-18T18:30:23.254Z,67.71
2023-04-18T18:32:26.734Z,67.86
2023-04-18T18:34:29.811Z,67.96
2023-04-18T18:36:31.504Z,67.67
2023-04-18T18:38:32.948Z,67.78
2023-04-18T18:40:34.416Z,67.59
2023-04-18T18:42:36.712Z,67.65
2023-04-18T18:44:38.186Z,67.68
2023-04-18T18:46:40.618Z,68.19
2023-04-18T18:48:43.106Z,67.91
2023-04-18T18:50:44.556Z,68.17
2023-04-18T18:52:46.142Z,68.01
2023-04-18T18:54:47.583Z,68.19
2023-04-18T18:56:49.079Z,68.28
2023-04-18T18:58:53.305Z,68.20
2023-04-18T19:00:56.151Z,68.28
2023-04-18T19:02:57.816Z,67.86
2023-04-18T19:04:59.465Z,68.40
2023-04-18T19:07:01.033Z,68.30
2023-04-18T19:09:02.614Z,68.47
2023-04-18T19:11:04.382Z,68.10
2023-04-18T19:13:05.894Z,68.20
2023-04-18T19:15:08.051Z,68.49
2023-04-18T19:17:09.752Z,68.32
2023-04-18T19:19:11.433Z,68.58
2023-04-18T19:21:13.671Z,68.59
2023-04-18T19:23:16.859Z,68.85
2023-04-18T19:25:18.446Z,69.01
2023-04-18T19:27:19.978Z,68.94
2023-04-18T19:29:22.403Z,68.75
2023-04-18T19:31:23.953Z,69.08
2023-04-18T19:33:25.631Z,69.26
2023-04-18T19:35:27.754Z,69.03
2023-04-18T19:37:29.545Z,69.28
2023-04-18T19:39:31.138Z,69.56
2023-04-18T19:41:32.601Z,69.40
2023-04-18T19:43:34.671Z,69.58
2023-04-18T19:45:36.414Z,69.58
2023-04-18T19:47:38.298Z,69.48
2023-04-18T19:49:39.760Z,69.69
2023-04-18T19:51:41.262Z,69.55
2023-04-18T19:53:42.814Z,69.41
2023-04-18T19:55:45.182Z,69.64
2023-04-18T19:57:47.818Z,69.50
2023-04-18T19:59:49.269Z,69.58
2023-04-18T20:01:50.776Z,69.57
2023-04-18T20:03:52.544Z,69.67
2023-04-18T20:05:54.289Z,69.72
2023-04-18T20:07:55.799Z,69.76
2023-04-18T20:09:57.298Z,69.83
2023-04-18T20:12:00.497Z,70.00
2023-04-18T20:14:02.199Z,70.15
2023-04-18T20:16:08.792Z,70.26
2023-04-18T20:18:10.704Z,70.11
2023-04-18T20:20:13.051Z,70.44
2023-04-18T20:22:14.978Z,70.38
2023-04-18T20:24:16.506Z,70.23
2023-04-18T20:26:18.039Z,70.74
2023-04-18T20:28:19.500Z,70.40
2023-04-18T20:30:22.019Z,70.94
2023-04-18T20:32:23.483Z,70.88
2023-04-18T20:34:25.010Z,70.72
2023-04-18T20:36:26.542Z,70.76
2023-04-18T20:38:29.678Z,71.13
2023-04-18T20:40:33.232Z,70.83
2023-04-18T20:42:34.789Z,71.10
2023-04-18T20:44:36.615Z,71.39
2023-04-18T20:46:38.191Z,70.81
2023-04-18T20:48:40.075Z,71.50
2023-04-18T20:50:43.859Z,71.21
2023-04-18T20:52:45.349Z,71.00
2023-04-18T20:54:46.787Z,71.03
2023-04-18T20:56:48.281Z,70.95
2023-04-18T20:58:49.730Z,71.49
2023-04-18T21:00:52.079Z,71.70
2023-04-18T21:02:53.638Z,71.56
2023-04-18T21:04:55.213Z,71.39
2023-04-18T21:06:56.736Z,71.55
2023-04-18T21:08:58.234Z,71.75
2023-04-18T21:10:59.688Z,71.93
2023-04-18T21:13:01.176Z,71.89
2023-04-18T21:15:02.737Z,71.71
2023-04-18T21:17:04.201Z,72.31
2023-04-18T21:19:06.854Z,71.65
2023-04-18T21:21:08.927Z,72.02
2023-04-18T21:23:10.366Z,71.70
2023-04-18T21:25:11.903Z,72.36
2023-04-18T21:27:13.452Z,72.73
2023-04-18T21:29:14.914Z,72.59
2023-04-18T21:31:16.451Z,72.67
2023-04-18T21:33:19.231Z,72.70
2023-04-18T21:35:22.011Z,71.96
2023-04-18T21:37:25.727Z,72.59
2023-04-18T21:39:27.666Z,72.18
2023-04-18T21:41:29.390Z,72.44
2023-04-18T21:43:30.847Z,72.54
2023-04-18T21:45:33.673Z,72.15
2023-04-18T21:47:35.215Z,72.92
2023-04-18T21:49:36.693Z,73.20
2023-04-18T21:51:38.147Z,72.88
2023-04-18T21:53:40.491Z,72.11
2023-04-18T21:55:41.949Z,72.11
2023-04-18T21:57:43.602Z,72.62
2023-04-18T21:59:45.085Z,71.96
2023-04-18T22:01:46.564Z,72.55
2023-04-18T22:03:48.181Z,71.83
2023-04-18T22:05:52.240Z,71.51
2023-04-18T22:07:58.111Z,72.01
2023-04-18T22:10:00.276Z,71.40
2023-04-18T22:12:03.579Z,71.43
2023-04-18T22:14:05.189Z,71.79
2023-04-18T22:16:08.200Z,71.52
2023-04-18T22:18:09.841Z,71.15
2023-04-18T22:20:11.787Z,71.61
2023-04-18T22:22:13.283Z,71.34
2023-04-18T22:24:14.937Z,71.24
2023-04-18T22:26:16.610Z,71.67
2023-04-18T22:28:18.083Z,71.47
2023-04-18T22:30:19.610Z,71.40
2023-04-18T22:32:21.144Z,71.60
2023-04-18T22:34:22.642Z,71.65
2023-04-18T22:36:24.932Z,71.25
2023-04-18T22:38:26.441Z,71.15
2023-04-18T22:40:27.929Z,71.34
2023-04-18T22:42:30.054Z,71.13
2023-04-18T22:44:31.661Z,71.53
2023-04-18T22:46:33.217Z,71.57
2023-04-18T22:48:35.180Z,70.99
2023-04-18T22:50:37.851Z,71.26
2023-04-18T22:52:39.411Z,71.15
2023-04-18T22:54:41.048Z,71.30
2023-04-18T22:56:42.597Z,71.42
2023-04-18T22:58:44.052Z,71.14
2023-04-18T23:00:45.564Z,71.53
2023-04-18T23:02:47.069Z,71.20
2023-04-18T23:04:49.301Z,71.04
2023-04-18T23:06:50.861Z,71.31
2023-04-18T23:08:52.359Z,71.08
2023-04-18T23:10:53.907Z,71.50
2023-04-18T23:12:55.581Z,71.23
2023-04-18T23:14:57.228Z,71.11
2023-04-18T23:16:58.693Z,71.27
2023-04-18T23:19:00.402Z,71.32
2023-04-18T23:21:01.920Z,71.09
2023-04-18T23:23:03.560Z,71.49
2023-04-18T23:25:05.610Z,71.57
2023-04-18T23:27:07.150Z,71.19
2023-04-18T23:29:08.594Z,71.14
2023-04-18T23:31:10.181Z,71.23
2023-04-18T23:33:11.647Z,71.13
2023-04-18T23:35:13.094Z,71.23
2023-04-18T23:37:14.567Z,70.58
2023-04-18T23:39:18.500Z,71.38
2023-04-18T23:41:20.027Z,71.64
2023-04-18T23:43:21.664Z,71.11
2023-04-18T23:45:24.384Z,71.10
2023-04-18T23:47:26.041Z,70.91
2023-04-18T23:49:28.419Z,70.91
2023-04-18T23:51:29.933Z,71.10
2023-04-18T23:53:31.401Z,70.70
2023-04-18T23:55:32.853Z,71.12
2023-04-18T23:57:34.387Z,71.29
2023-04-18T23:59:36.090Z,71.04
